Time;durP1;ratioP1;P1;durP2;ratioP2;P2;SDS_P1;SDS_P2;PMS_P1;PMS_P2;Temp;Humidity;BMP_temperature;BMP_pressure;BME280_temperature;BME280_humidity;BME280_pressure;Samples;Min_cycle;Max_cycle;Signal;HPM_P1;HPM_P2
2021/12/10 00:00:53;;;;;;;5.70;1.35;;;;;;;-149.78;100.00;50584.88;5134691;27;20027;-66
2021/12/10 00:03:30;;;;;;;11.20;1.45;;;;;;;-149.78;100.00;50577.06;5140274;27;20063;-66
2021/12/10 00:06:00;;;;;;;3.95;1.30;;;;;;;-149.78;100.00;50584.88;5155836;27;20477;-66
2021/12/10 00:08:30;;;;;;;14.13;1.30;;;;;;;-149.78;100.00;50557.50;5140051;27;20490;-66
2021/12/10 00:10:59;;;;;;;7.20;1.38;;;;;;;-149.78;100.00;50555.53;5158056;27;20022;-66
2021/12/10 00:13:27;;;;;;;9.02;1.30;;;;;;;-149.78;100.00;50577.06;5154951;27;20035;-67
2021/12/10 00:15:55;;;;;;;9.23;1.30;;;;;;;-149.78;100.00;50557.50;5157140;27;20023;-66
2021/12/10 00:18:29;;;;;;;8.65;1.50;;;;;;;-149.78;100.00;50588.78;5157582;27;20033;-66
2021/12/10 00:20:58;;;;;;;14.38;1.10;;;;;;;-149.78;100.00;50592.72;5155186;27;20050;-66
2021/12/10 00:23:28;;;;;;;5.65;1.50;;;;;;;-149.78;100.00;50565.31;5149478;27;20042;-67
2021/12/10 00:25:54;;;;;;;8.15;1.25;;;;;;;-149.78;100.00;50565.31;5149149;27;20087;-67
2021/12/10 00:28:28;;;;;;;9.52;1.75;;;;;;;-149.78;100.00;50596.63;5151980;27;20399;-66
2021/12/10 00:31:15;;;;;;;7.40;1.15;;;;;;;-149.78;100.00;50539.91;5147848;27;20438;-66
2021/12/10 00:33:46;;;;;;;5.72;1.33;;;;;;;-149.78;100.00;50577.06;5149242;27;20041;-66
2021/12/10 00:36:13;;;;;;;4.72;1.17;;;;;;;-149.78;100.00;50600.53;5145195;27;20080;-66
2021/12/10 00:38:40;;;;;;;7.30;1.35;;;;;;;-149.78;100.00;50580.97;5141093;27;20496;-66
2021/12/10 00:41:07;;;;;;;10.82;1.30;;;;;;;-149.78;100.00;50586.84;5134462;27;20397;-66
2021/12/10 00:43:35;;;;;;;10.98;2.42;;;;;;;-149.78;100.00;50596.63;5131617;27;20035;-67
2021/12/10 00:46:00;;;;;;;11.57;1.50;;;;;;;-149.78;100.00;50565.31;5141499;27;20479;-66
2021/12/10 00:48:26;;;;;;;8.02;1.67;;;;;;;-149.78;100.00;50573.16;5137347;27;20104;-66
2021/12/10 00:50:54;;;;;;;12.23;2.03;;;;;;;-149.78;100.00;50592.72;5135886;27;20435;-66
2021/12/10 00:53:21;;;;;;;5.93;1.30;;;;;;;-149.78;100.00;50580.97;5139612;27;20031;-67
2021/12/10 00:55:47;;;;;;;8.30;1.33;;;;;;;-149.78;100.00;50569.22;5134558;27;20027;-66
2021/12/10 00:58:14;;;;;;;6.32;1.15;;;;;;;-149.78;100.00;50549.69;5138488;27;20031;-66
2021/12/10 01:00:47;;;;;;;8.48;0.93;;;;;;;-149.78;100.00;50557.50;5127255;27;20059;-66
2021/12/10 01:03:15;;;;;;;7.30;1.00;;;;;;;-149.78;100.00;50620.09;5135835;27;20052;-66
2021/12/10 01:05:44;;;;;;;6.03;1.25;;;;;;;-149.78;100.00;50579.00;5133309;27;20122;-66
2021/12/10 01:08:09;;;;;;;6.88;1.13;;;;;;;-149.78;100.00;50565.31;5114832;27;20050;-66
2021/12/10 01:10:41;;;;;;;12.55;1.40;;;;;;;-149.78;100.00;50565.31;5136616;27;20076;-66
2021/12/10 01:13:11;;;;;;;13.07;1.52;;;;;;;-149.78;100.00;50580.97;5141964;27;20027;-66
2021/12/10 01:24:14;;;;;;;5.80;1.45;;;;;;;-149.78;100.00;50541.84;5114214;27;20035;-66
2021/12/10 01:29:14;;;;;;;7.03;1.40;;;;;;;-149.78;100.00;50596.63;5128362;27;20034;-66
2021/12/10 01:31:41;;;;;;;14.20;2.28;;;;;;;-149.78;100.00;50557.50;5142749;27;20023;-66
2021/12/10 01:34:09;;;;;;;12.88;1.60;;;;;;;-149.78;100.00;50557.50;5117223;27;20031;-66
2021/12/10 01:36:36;;;;;;;13.88;1.90;;;;;;;-149.78;100.00;50600.53;5117271;27;20418;-66
2021/12/10 01:39:07;;;;;;;6.88;1.73;;;;;;;-149.78;100.00;50580.97;5137029;27;20035;-66
2021/12/10 01:41:37;;;;;;;11.70;3.15;;;;;;;-149.78;100.00;50580.97;5138172;27;20119;-66
2021/12/10 01:44:04;;;;;;;10.23;2.17;;;;;;;-149.78;100.00;50569.22;5140082;27;20091;-66
2021/12/10 01:46:32;;;;;;;10.85;2.08;;;;;;;-149.78;100.00;50584.88;5141804;27;20027;-66
2021/12/10 01:49:02;;;;;;;5.28;1.70;;;;;;;-149.78;100.00;50579.00;5134012;27;20027;-66
2021/12/10 01:51:32;;;;;;;13.05;1.95;;;;;;;-149.78;100.00;50588.78;5136387;27;20029;-66
2021/12/10 01:54:05;;;;;;;6.28;1.88;;;;;;;-149.78;100.00;50549.69;5131447;27;20019;-66
2021/12/10 01:56:35;;;;;;;10.20;1.77;;;;;;;-149.78;100.00;50565.31;5136415;27;20072;-66
2021/12/10 01:59:04;;;;;;;11.32;2.88;;;;;;;-149.78;100.00;50549.69;5129444;27;20023;-66
2021/12/10 02:01:35;;;;;;;15.45;3.25;;;;;;;-149.78;100.00;50537.94;5136350;27;20058;-66
2021/12/10 02:04:04;;;;;;;17.25;2.55;;;;;;;-149.78;100.00;50614.22;5137243;27;20023;-66
2021/12/10 02:06:30;;;;;;;9.20;1.70;;;;;;;-149.78;100.00;50579.00;5131485;27;20077;-66
2021/12/10 02:08:55;;;;;;;16.60;2.60;;;;;;;-149.78;100.00;50592.72;5141622;27;20051;-66
2021/12/10 02:11:22;;;;;;;13.35;2.60;;;;;;;-149.78;100.00;50557.50;5135895;27;20032;-66
2021/12/10 02:13:49;;;;;;;14.75;2.40;;;;;;;-149.78;100.00;50592.72;5131669;27;20036;-66
2021/12/10 02:16:15;;;;;;;17.70;3.22;;;;;;;-149.78;100.00;50584.88;5139070;27;20487;-66
2021/12/10 02:18:42;;;;;;;17.05;2.60;;;;;;;-149.78;100.00;50561.41;5134406;27;20062;-66
2021/12/10 02:21:08;;;;;;;19.00;2.58;;;;;;;-149.78;100.00;50592.72;5139183;27;20418;-66
2021/12/10 02:23:39;;;;;;;11.18;2.13;;;;;;;-149.78;100.00;50588.78;5138091;27;20046;-66
2021/12/10 02:26:11;;;;;;;10.10;2.20;;;;;;;-149.78;100.00;50588.78;5134837;27;20028;-66
2021/12/10 02:28:39;;;;;;;15.20;2.30;;;;;;;-149.78;100.00;50555.53;5136104;27;20075;-66
2021/12/10 02:31:07;;;;;;;12.43;2.35;;;;;;;-149.78;100.00;50600.53;5138877;27;20019;-66
2021/12/10 02:33:34;;;;;;;13.95;2.42;;;;;;;-149.78;100.00;50575.09;5136022;27;20382;-66
2021/12/10 02:36:00;;;;;;;6.72;1.40;;;;;;;-149.78;100.00;50582.94;5134887;27;20389;-66
2021/12/10 02:38:27;;;;;;;11.68;1.35;;;;;;;-149.78;100.00;50584.88;5141733;27;20375;-66
2021/12/10 02:40:55;;;;;;;10.32;1.35;;;;;;;-149.78;100.00;50551.63;5136569;27;20035;-66
2021/12/10 02:43:22;;;;;;;10.88;1.50;;;;;;;-149.78;100.00;50596.63;5141683;27;20366;-66
2021/12/10 02:45:52;;;;;;;11.82;1.55;;;;;;;-149.78;100.00;50553.59;5137038;27;20050;-66
2021/12/10 02:48:18;;;;;;;10.38;1.55;;;;;;;-149.78;100.00;50549.69;5135967;27;20034;-66
2021/12/10 02:50:46;;;;;;;9.20;1.65;;;;;;;-149.78;100.00;50565.31;5134669;27;20382;-66
2021/12/10 02:53:14;;;;;;;21.92;1.83;;;;;;;-149.78;100.00;50573.16;5137435;27;20576;-66
2021/12/10 02:55:41;;;;;;;13.02;1.55;;;;;;;-149.78;100.00;50561.41;5116847;27;20470;-66
2021/12/10 02:58:10;;;;;;;6.90;1.83;;;;;;;-149.78;100.00;50580.97;5134795;27;20080;-66
2021/12/10 03:00:50;;;;;;;13.63;1.65;;;;;;;-149.78;100.00;50588.78;5134611;27;20042;-66
2021/12/10 03:03:16;;;;;;;11.93;2.25;;;;;;;-149.78;100.00;50594.66;5134555;27;20043;-66
2021/12/10 03:05:42;;;;;;;11.95;1.67;;;;;;;-149.78;100.00;50635.72;5134640;27;20092;-66
2021/12/10 03:08:07;;;;;;;11.02;1.80;;;;;;;-149.78;100.00;50580.97;5134553;27;20034;-66
2021/12/10 03:10:35;;;;;;;19.30;2.15;;;;;;;-149.78;100.00;50584.88;5134469;27;20474;-66
2021/12/10 03:13:00;;;;;;;8.02;2.53;;;;;;;-149.78;100.00;50622.03;5134603;27;20674;-66
2021/12/10 03:15:28;;;;;;;9.13;2.42;;;;;;;-149.78;100.00;50580.97;5134333;27;20031;-66
2021/12/10 03:17:56;;;;;;;12.98;2.17;;;;;;;-149.78;100.00;50604.44;5134461;27;20084;-67
2021/12/10 03:20:26;;;;;;;13.05;3.35;;;;;;;-149.78;100.00;50612.25;5134155;27;20061;-66
2021/12/10 03:22:51;;;;;;;7.50;1.73;;;;;;;-149.78;100.00;50592.72;5133618;27;20066;-67
2021/12/10 03:25:18;;;;;;;20.00;2.65;;;;;;;-149.78;100.00;50600.53;5134202;27;20063;-67
2021/12/10 03:27:45;;;;;;;10.77;2.30;;;;;;;-149.78;100.00;50600.53;5134454;27;20031;-67
2021/12/10 03:30:16;;;;;;;13.82;2.50;;;;;;;-149.78;100.00;50553.59;5134308;27;20035;-67
2021/12/10 03:32:42;;;;;;;18.90;2.67;;;;;;;-149.78;100.00;50620.09;5134414;27;20107;-67
2021/12/10 03:35:14;;;;;;;12.82;1.80;;;;;;;-149.78;100.00;50577.06;5134248;27;20073;-66
2021/12/10 03:37:41;;;;;;;13.77;1.50;;;;;;;-149.78;100.00;50614.22;5134238;27;20035;-67
2021/12/10 03:40:11;;;;;;;5.25;0.80;;;;;;;-149.78;100.00;50582.94;5134229;27;20038;-67
2021/12/10 03:42:38;;;;;;;3.60;1.02;;;;;;;-149.78;100.00;50602.47;5134109;28;20467;-66
2021/12/10 03:45:09;;;;;;;3.13;0.77;;;;;;;-149.78;100.00;50571.19;5134043;28;20035;-66
2021/12/10 03:47:35;;;;;;;3.97;0.90;;;;;;;-149.78;100.00;50596.63;5134146;28;20114;-67
2021/12/10 03:50:01;;;;;;;5.57;1.00;;;;;;;-149.78;100.00;50596.63;5134153;28;20164;-67
2021/12/10 03:52:26;;;;;;;9.75;1.10;;;;;;;-149.78;100.00;50557.50;5134047;28;20034;-66
2021/12/10 03:54:54;;;;;;;6.25;0.98;;;;;;;-149.78;100.00;50608.34;5114656;28;20031;-67
2021/12/10 03:57:20;;;;;;;3.90;0.88;;;;;;;-149.78;100.00;50649.44;5133965;28;20031;-66
2021/12/10 03:59:46;;;;;;;5.32;0.80;;;;;;;-149.78;100.00;50600.53;5134006;28;20118;-67
2021/12/10 04:02:12;;;;;;;3.10;0.60;;;;;;;-149.78;100.00;50588.78;5134037;28;20122;-66
2021/12/10 04:04:43;;;;;;;4.75;1.00;;;;;;;-149.78;100.00;50612.25;5133803;28;20058;-66
2021/12/10 04:07:18;;;;;;;3.30;0.60;;;;;;;-149.78;100.00;50584.88;5134003;28;20079;-66
2021/12/10 04:09:44;;;;;;;6.45;0.70;;;;;;;-149.78;100.00;50594.66;5133931;28;20035;-66
2021/12/10 04:12:10;;;;;;;5.93;0.80;;;;;;;-149.78;100.00;50592.72;5133936;27;20019;-66
2021/12/10 04:14:39;;;;;;;8.23;0.50;;;;;;;-149.78;100.00;50600.53;5133328;28;20387;-66
2021/12/10 04:17:06;;;;;;;6.70;0.98;;;;;;;-149.78;100.00;50618.13;5133531;28;20062;-66
2021/12/10 04:19:35;;;;;;;5.72;0.68;;;;;;;-149.78;100.00;50641.59;5111454;28;20071;-66
2021/12/10 04:22:05;;;;;;;5.00;0.93;;;;;;;-149.78;100.00;50596.63;5127568;28;20344;-66
2021/12/10 04:24:33;;;;;;;3.00;0.70;;;;;;;-149.78;100.00;50620.09;5133705;28;20074;-66
2021/12/10 04:27:03;;;;;;;2.72;0.70;;;;;;;-149.78;100.00;50635.72;5115617;28;20098;-66
2021/12/10 04:29:29;;;;;;;3.70;1.10;;;;;;;-149.78;100.00;50631.81;5131058;28;20027;-66
2021/12/10 04:31:57;;;;;;;3.75;0.70;;;;;;;-149.78;100.00;50643.56;5133658;28;20080;-66
2021/12/10 04:34:24;;;;;;;9.70;1.00;;;;;;;-149.78;100.00;50612.25;5134503;27;20027;-66
2021/12/10 04:36:52;;;;;;;3.55;0.80;;;;;;;-149.78;100.00;50618.13;5137784;27;20027;-66
2021/12/10 04:39:19;;;;;;;5.20;1.48;;;;;;;-149.78;100.00;50569.22;5137460;27;20102;-66
2021/12/10 04:41:45;;;;;;;2.88;0.90;;;;;;;-149.78;100.00;50600.53;5137345;27;20038;-66
2021/12/10 04:44:11;;;;;;;3.90;0.63;;;;;;;-149.78;100.00;50659.19;5137440;27;20035;-66
2021/12/10 04:46:37;;;;;;;1.40;0.82;;;;;;;-149.78;100.00;50667.03;5137207;27;20038;-66
2021/12/10 04:49:10;;;;;;;4.43;0.70;;;;;;;-149.78;100.00;50577.06;5137355;27;20023;-66
2021/12/10 04:51:46;;;;;;;6.50;0.70;;;;;;;-149.78;100.00;50592.72;5137223;27;20031;-66
2021/12/10 04:54:14;;;;;;;8.18;0.98;;;;;;;-149.78;100.00;50627.91;5142382;27;20031;-66
2021/12/10 04:56:40;;;;;;;4.57;1.08;;;;;;;-149.78;100.00;50604.44;5136838;27;20434;-66
2021/12/10 04:59:09;;;;;;;2.90;0.63;;;;;;;-149.78;100.00;50624.00;5136991;27;20023;-66
2021/12/10 05:01:36;;;;;;;10.77;1.15;;;;;;;-149.78;100.00;50647.47;5137001;27;20055;-66
2021/12/10 05:04:06;;;;;;;4.97;1.00;;;;;;;-149.78;100.00;50580.97;5137068;27;20744;-66
2021/12/10 05:06:32;;;;;;;4.95;1.17;;;;;;;-149.78;100.00;50580.97;5136947;27;20035;-66
2021/12/10 05:08:58;;;;;;;3.60;1.00;;;;;;;-149.78;100.00;50594.66;5136925;27;20069;-66
2021/12/10 05:11:24;;;;;;;6.10;1.08;;;;;;;-149.78;100.00;50586.84;5136988;27;20390;-66
2021/12/10 05:13:49;;;;;;;2.45;0.75;;;;;;;-149.78;100.00;50651.38;5136522;27;20058;-66
2021/12/10 05:16:17;;;;;;;5.40;0.93;;;;;;;-149.78;100.00;50627.91;5136708;27;20038;-66
2021/12/10 05:18:48;;;;;;;5.70;0.82;;;;;;;-149.78;100.00;50606.41;5136845;27;20027;-66
2021/12/10 05:21:16;;;;;;;4.10;1.10;;;;;;;-149.78;100.00;50608.34;5118305;27;20362;-66
2021/12/10 05:23:42;;;;;;;9.77;1.40;;;;;;;-149.78;100.00;50602.47;5136520;27;20303;-66
2021/12/10 05:26:08;;;;;;;11.30;1.25;;;;;;;-149.78;100.00;50590.75;5136687;27;20073;-66
2021/12/10 05:28:35;;;;;;;6.43;0.95;;;;;;;-149.78;100.00;50633.78;5136423;27;20047;-66
2021/12/10 05:31:01;;;;;;;6.93;1.08;;;;;;;-149.78;100.00;50590.75;5136383;27;20030;-66
2021/12/10 05:33:29;;;;;;;8.40;0.77;;;;;;;-149.78;100.00;50584.88;5136420;27;20058;-66
2021/12/10 05:35:57;;;;;;;4.72;0.70;;;;;;;-149.78;100.00;50588.78;5117977;27;20087;-66
2021/12/10 05:38:24;;;;;;;9.18;1.88;;;;;;;-149.78;100.00;50608.34;5136166;27;20054;-66
2021/12/10 05:40:53;;;;;;;7.80;1.48;;;;;;;-149.78;100.00;50582.94;5136152;27;20478;-66
2021/12/10 05:43:19;;;;;;;5.82;0.95;;;;;;;-149.78;100.00;50577.06;5136249;27;20104;-66
2021/12/10 05:45:47;;;;;;;5.15;0.93;;;;;;;-149.78;100.00;50608.34;5135877;27;20038;-66
2021/12/10 05:48:12;;;;;;;5.00;1.10;;;;;;;-149.78;100.00;50600.53;5136039;27;20031;-66
2021/12/10 05:50:38;;;;;;;4.70;0.93;;;;;;;-149.78;100.00;50600.53;5136190;27;20347;-66
2021/12/10 05:53:05;;;;;;;4.70;0.90;;;;;;;-149.78;100.00;50604.44;5136031;27;20034;-66
2021/12/10 05:55:31;;;;;;;5.35;1.08;;;;;;;-149.78;100.00;50586.84;5136274;27;20347;-67
2021/12/10 05:57:58;;;;;;;7.55;1.25;;;;;;;-149.78;100.00;50608.34;5143511;27;20018;-66
2021/12/10 06:00:31;;;;;;;4.47;1.08;;;;;;;-149.78;100.00;50596.63;5142585;27;20085;-66
2021/12/10 06:02:58;;;;;;;3.92;1.15;;;;;;;-149.78;100.00;50620.09;5144039;27;20026;-66
2021/12/10 06:05:25;;;;;;;5.65;0.85;;;;;;;-149.78;100.00;50608.34;5145407;27;20423;-66
2021/12/10 06:07:51;;;;;;;6.28;1.15;;;;;;;-149.78;100.00;50633.78;5144097;27;20036;-66
2021/12/10 06:10:19;;;;;;;9.90;1.20;;;;;;;-149.78;100.00;50612.25;5151701;27;20038;-66
2021/12/10 06:12:46;;;;;;;7.28;1.10;;;;;;;-149.78;100.00;50627.91;5142170;27;20080;-66
2021/12/10 06:15:14;;;;;;;12.82;1.38;;;;;;;-149.78;100.00;50641.59;5147351;27;20039;-66
2021/12/10 06:17:40;;;;;;;6.75;1.30;;;;;;;-149.78;100.00;50614.22;5143433;27;20362;-65
2021/12/10 06:20:09;;;;;;;11.45;1.80;;;;;;;-149.78;100.00;50618.13;5153117;27;20696;-66
2021/12/10 06:22:35;;;;;;;8.20;1.40;;;;;;;-149.78;100.00;50596.63;5147020;27;20034;-66
2021/12/10 06:25:01;;;;;;;6.28;1.20;;;;;;;-149.78;100.00;50606.41;5149413;27;20041;-67
2021/12/10 06:27:27;;;;;;;12.77;1.45;;;;;;;-149.78;100.00;50635.72;5132942;27;20031;-66
2021/12/10 06:29:53;;;;;;;9.75;0.90;;;;;;;-149.78;100.00;50616.19;5122014;27;20040;-66
2021/12/10 06:32:18;;;;;;;8.18;1.17;;;;;;;-149.78;100.00;50592.72;5099169;28;20038;-66
2021/12/10 06:34:44;;;;;;;9.60;1.33;;;;;;;-149.78;100.00;50592.72;5135094;27;20085;-66
2021/12/10 06:37:10;;;;;;;6.22;1.30;;;;;;;-149.78;100.00;50627.91;5116723;27;20062;-66
2021/12/10 06:39:35;;;;;;;4.03;1.40;;;;;;;-149.78;100.00;50620.09;5135142;27;20035;-66
2021/12/10 06:42:03;;;;;;;9.88;1.48;;;;;;;-149.78;100.00;50614.22;5116232;27;20031;-66
2021/12/10 06:44:29;;;;;;;9.65;1.77;;;;;;;-149.78;100.00;50596.63;5134934;27;20039;-66
2021/12/10 06:46:54;;;;;;;7.72;1.20;;;;;;;-149.78;100.00;50600.53;5135016;27;20027;-66
2021/12/10 06:49:20;;;;;;;12.27;1.67;;;;;;;-149.78;100.00;50627.91;5115842;27;20482;-66
2021/12/10 06:51:46;;;;;;;15.20;2.10;;;;;;;-149.78;100.00;50600.53;5134975;27;20038;-66
2021/12/10 06:54:11;;;;;;;6.88;1.23;;;;;;;-149.78;100.00;50627.91;5134914;27;20058;-66
2021/12/10 06:56:38;;;;;;;8.43;1.52;;;;;;;-149.78;100.00;50584.88;5116357;27;20457;-66
2021/12/10 06:59:06;;;;;;;6.03;1.17;;;;;;;-149.78;100.00;50608.34;5129049;27;20072;-66
2021/12/10 07:01:38;;;;;;;10.18;1.60;;;;;;;-149.78;100.00;50594.66;5134716;27;20031;-66
2021/12/10 07:04:09;;;;;;;14.38;1.45;;;;;;;-149.78;100.00;50588.78;5137580;27;20033;-66
2021/12/10 07:06:38;;;;;;;7.65;1.40;;;;;;;-149.78;100.00;50594.66;5150943;27;20026;-66
2021/12/10 07:09:10;;;;;;;3.50;1.35;;;;;;;-149.78;100.00;50627.91;5145455;27;20045;-66
2021/12/10 07:11:36;;;;;;;10.30;1.65;;;;;;;-149.78;100.00;50596.63;5146574;27;20112;-66
2021/12/10 07:14:02;;;;;;;11.50;1.67;;;;;;;-149.78;100.00;50633.78;5139657;27;20038;-66
2021/12/10 07:16:30;;;;;;;10.18;1.70;;;;;;;-149.78;100.00;50606.41;5128780;27;20038;-67
2021/12/10 07:18:57;;;;;;;11.45;1.95;;;;;;;-149.78;100.00;50616.19;5126970;27;20023;-66
2021/12/10 07:21:24;;;;;;;8.80;1.55;;;;;;;-149.78;100.00;50604.44;5145418;27;20031;-66
2021/12/10 07:23:50;;;;;;;8.90;1.40;;;;;;;-149.78;100.00;50592.72;5133853;27;20097;-66
2021/12/10 07:26:16;;;;;;;10.75;1.27;;;;;;;-149.78;100.00;50584.88;5152997;27;20034;-66
2021/12/10 07:28:43;;;;;;;8.93;1.42;;;;;;;-149.78;100.00;50604.44;5144929;27;20080;-67
2021/12/10 07:31:09;;;;;;;12.75;2.63;;;;;;;-149.78;100.00;50608.34;5146246;27;20024;-66
2021/12/10 07:33:35;;;;;;;7.63;1.40;;;;;;;-149.78;100.00;50651.38;5144168;27;20461;-65
2021/12/10 07:36:01;;;;;;;10.02;1.25;;;;;;;-149.78;100.00;50596.63;5146150;27;20031;-65
2021/12/10 07:38:27;;;;;;;7.32;1.27;;;;;;;-149.78;100.00;50584.88;5143746;27;20046;-65
2021/12/10 07:40:53;;;;;;;8.23;2.13;;;;;;;-149.78;100.00;50604.44;5139653;27;20035;-66
2021/12/10 07:43:21;;;;;;;6.72;1.20;;;;;;;-149.78;100.00;50600.53;5134849;27;20455;-66
2021/12/10 07:45:48;;;;;;;5.40;1.25;;;;;;;-149.78;100.00;50624.00;5146244;27;20031;-65
2021/12/10 07:48:17;;;;;;;4.88;1.48;;;;;;;-149.78;100.00;50594.66;5136947;27;20050;-65
2021/12/10 07:50:52;;;;;;;13.02;1.55;;;;;;;-149.78;100.00;50625.94;5137212;27;20068;-65
2021/12/10 07:53:19;;;;;;;6.05;1.25;;;;;;;-149.78;100.00;50592.72;5121948;27;20110;-65
2021/12/10 07:55:45;;;;;;;6.57;1.63;;;;;;;-149.78;100.00;50625.94;5150765;27;20023;-66
2021/12/10 07:58:11;;;;;;;12.30;2.38;;;;;;;-149.78;100.00;50631.81;5145894;27;20046;-65
2021/12/10 08:00:40;;;;;;;10.88;2.38;;;;;;;-149.78;100.00;50600.53;5135077;27;20466;-65
2021/12/10 08:03:06;;;;;;;9.80;1.73;;;;;;;-149.78;100.00;50608.34;5137368;27;20030;-65
2021/12/10 08:05:33;;;;;;;6.70;1.80;;;;;;;-149.78;100.00;50604.44;5130506;27;20058;-64
2021/12/10 08:08:00;;;;;;;8.40;1.92;;;;;;;-149.78;100.00;50602.47;5135317;27;20037;-64
2021/12/10 08:10:27;;;;;;;8.32;1.70;;;;;;;-149.78;100.00;50582.94;5136037;27;20114;-64
2021/12/10 08:12:53;;;;;;;5.95;1.77;;;;;;;-149.78;100.00;50616.19;5130142;27;20075;-65
2021/12/10 08:15:18;;;;;;;7.13;2.30;;;;;;;-149.78;100.00;50608.34;5141821;27;21734;-65
2021/12/10 08:17:45;;;;;;;13.38;2.20;;;;;;;-149.78;100.00;50600.53;5151358;27;20083;-65
2021/12/10 08:20:13;;;;;;;6.13;1.55;;;;;;;-149.78;100.00;50592.72;5152574;27;20031;-65
2021/12/10 08:22:40;;;;;;;6.55;1.50;;;;;;;-149.78;100.00;50612.25;5128607;27;20390;-65
2021/12/10 08:25:06;;;;;;;5.03;1.70;;;;;;;-149.78;100.00;50620.09;5134818;27;20039;-65
2021/12/10 08:27:33;;;;;;;10.90;2.03;;;;;;;-149.78;100.00;50620.09;5145712;27;20091;-65
2021/12/10 08:30:03;;;;;;;6.57;1.98;;;;;;;-149.78;100.00;50647.47;5130318;27;20034;-65
2021/12/10 08:32:31;;;;;;;8.07;1.88;;;;;;;-149.78;100.00;50627.91;5153131;27;20041;-65
2021/12/10 08:34:59;;;;;;;8.45;2.35;;;;;;;-149.78;100.00;50624.00;5137023;27;20035;-65
2021/12/10 08:37:24;;;;;;;8.57;1.63;;;;;;;-149.78;100.00;50625.94;5136799;27;20367;-67
2021/12/10 08:39:50;;;;;;;4.97;1.15;;;;;;;-149.78;100.00;50620.09;5136849;27;20039;-65
2021/12/10 08:42:16;;;;;;;5.50;0.90;;;;;;;-149.78;100.00;50588.78;5121398;27;20031;-65
2021/12/10 08:44:44;;;;;;;6.03;1.40;;;;;;;-149.78;100.00;50596.63;5135893;27;20526;-64
2021/12/10 08:47:12;;;;;;;4.07;1.35;;;;;;;-149.78;100.00;50625.94;5136293;27;20019;-65
2021/12/10 08:49:39;;;;;;;2.47;0.70;;;;;;;-149.78;100.00;50596.63;5118565;27;20039;-65
2021/12/10 08:52:08;;;;;;;9.02;1.50;;;;;;;-149.78;100.00;50604.44;5118413;27;20035;-65
2021/12/10 08:54:36;;;;;;;4.85;1.88;;;;;;;-149.78;100.00;50624.00;5146533;27;20435;-64
2021/12/10 08:57:03;;;;;;;5.57;1.58;;;;;;;-149.78;100.00;50627.91;5132736;27;20359;-65
2021/12/10 08:59:29;;;;;;;4.13;1.20;;;;;;;-149.78;100.00;50627.91;5121676;27;20038;-64
2021/12/10 09:01:58;;;;;;;7.95;1.63;;;;;;;-149.78;100.00;50604.44;5136635;27;20032;-64
2021/12/10 09:04:25;;;;;;;2.45;1.50;;;;;;;-149.78;100.00;50600.53;5133907;27;20039;-64
2021/12/10 09:06:55;;;;;;;7.18;1.60;;;;;;;-149.78;100.00;50614.22;5144664;27;20023;-64
2021/12/10 09:09:22;;;;;;;7.20;1.80;;;;;;;-149.78;100.00;50643.56;5147874;27;20034;-64
2021/12/10 09:11:55;;;;;;;6.28;1.80;;;;;;;-149.78;100.00;50631.81;5152899;27;20407;-64
2021/12/10 09:14:27;;;;;;;7.65;1.73;;;;;;;-149.78;100.00;50604.44;5144982;27;20470;-64
2021/12/10 09:16:56;;;;;;;9.00;1.80;;;;;;;-149.78;100.00;50625.94;5148642;27;20027;-64
2021/12/10 09:19:22;;;;;;;7.28;1.75;;;;;;;-149.78;100.00;50592.72;5127488;27;20483;-65
2021/12/10 09:21:48;;;;;;;7.47;1.90;;;;;;;-149.78;100.00;50624.00;5146840;27;20069;-65
2021/12/10 09:24:18;;;;;;;10.20;1.90;;;;;;;-149.78;100.00;50614.22;5153856;27;20091;-64
2021/12/10 09:26:46;;;;;;;6.18;1.70;;;;;;;-149.78;100.00;50622.03;5137395;27;20038;-65
2021/12/10 09:29:16;;;;;;;14.57;2.63;;;;;;;-149.78;100.00;50608.34;5132340;27;20039;-65
2021/12/10 09:31:43;;;;;;;9.23;1.77;;;;;;;-149.78;100.00;50608.34;5146833;27;20495;-64
2021/12/10 09:34:12;;;;;;;7.07;1.63;;;;;;;-149.78;100.00;50580.97;5150387;27;20035;-64
2021/12/10 09:36:43;;;;;;;8.38;1.92;;;;;;;-149.78;100.00;50659.19;5144944;27;20095;-64
2021/12/10 09:39:10;;;;;;;4.57;1.23;;;;;;;-149.78;100.00;50592.72;5149891;27;20117;-64
2021/12/10 09:41:37;;;;;;;10.05;2.30;;;;;;;-149.78;100.00;50600.53;5134849;27;20030;-65
2021/12/10 09:44:05;;;;;;;5.15;1.70;;;;;;;-149.78;100.00;50620.09;5123751;27;20073;-65
2021/12/10 09:46:31;;;;;;;8.18;1.48;;;;;;;-149.78;100.00;50604.44;5117502;27;20554;-65
2021/12/10 09:48:57;;;;;;;4.88;1.52;;;;;;;-149.78;100.00;50627.91;5135972;27;20118;-65
2021/12/10 09:51:33;;;;;;;10.00;1.52;;;;;;;-149.78;100.00;50606.41;5147978;27;20022;-64
2021/12/10 09:54:02;;;;;;;7.80;1.60;;;;;;;-149.78;100.00;50616.19;5150775;27;20034;-64
2021/12/10 09:56:29;;;;;;;4.47;1.90;;;;;;;-149.78;100.00;50624.00;5151079;27;20034;-64
2021/12/10 09:58:56;;;;;;;3.03;1.15;;;;;;;-149.78;100.00;50633.78;5146565;27;20038;-65
2021/12/10 10:01:36;;;;;;;5.60;1.50;;;;;;;-149.78;100.00;50620.09;5138575;27;20035;-65
2021/12/10 10:04:04;;;;;;;7.57;1.35;;;;;;;-149.78;100.00;50612.25;5124101;27;20385;-65
2021/12/10 10:06:48;;;;;;;4.32;1.30;;;;;;;-149.78;100.00;50592.72;5138574;27;20069;-64
2021/12/10 10:09:16;;;;;;;7.00;1.63;;;;;;;-149.78;100.00;50604.44;5148118;27;20027;-65
2021/12/10 10:11:43;;;;;;;3.88;1.42;;;;;;;-149.78;100.00;50600.53;5135136;27;20023;-64
2021/12/10 10:14:09;;;;;;;10.10;1.63;;;;;;;-149.78;100.00;50616.19;5131904;27;20107;-64
2021/12/10 10:16:39;;;;;;;6.22;1.48;;;;;;;-149.78;100.00;50600.53;5134941;27;20034;-65
2021/12/10 10:19:05;;;;;;;8.48;1.42;;;;;;;-149.78;100.00;50575.09;5134834;27;20027;-64
2021/12/10 10:21:35;;;;;;;5.55;2.15;;;;;;;-149.78;100.00;50596.63;5145411;27;20102;-65
2021/12/10 10:24:03;;;;;;;6.32;1.52;;;;;;;-149.78;100.00;50545.75;5134565;27;20502;-65
2021/12/10 10:26:38;;;;;;;7.50;1.20;;;;;;;-149.78;100.00;50600.53;5144088;27;20362;-65
2021/12/10 10:29:17;;;;;;;4.55;1.60;;;;;;;-149.78;100.00;50569.22;5132919;27;20030;-64
2021/12/10 10:31:51;;;;;;;5.20;1.02;;;;;;;-149.78;100.00;50582.94;5135418;27;20492;-64
2021/12/10 10:34:18;;;;;;;7.10;1.27;;;;;;;-149.78;100.00;50580.97;5137571;27;20049;-65
2021/12/10 10:36:45;;;;;;;8.30;1.13;;;;;;;-149.78;100.00;50608.34;5141969;27;20038;-64
2021/12/10 10:39:24;;;;;;;6.10;1.10;;;;;;;-149.78;100.00;50569.22;5144951;27;20039;-64
2021/12/10 10:41:55;;;;;;;3.72;1.00;;;;;;;-149.78;100.00;50565.31;5142641;27;20061;-65
2021/12/10 10:44:24;;;;;;;4.10;0.93;;;;;;;-149.78;100.00;50584.88;5134628;27;20138;-64
2021/12/10 10:46:55;;;;;;;1.90;0.95;;;;;;;-149.78;100.00;50622.03;5134565;27;20019;-64
2021/12/10 10:49:40;;;;;;;1.90;0.90;;;;;;;-149.78;100.00;50588.78;5145807;27;20027;-64
2021/12/10 10:52:20;;;;;;;4.38;0.93;;;;;;;-149.78;100.00;50561.41;5134297;27;20132;-64
2021/12/10 10:54:49;;;;;;;4.63;0.63;;;;;;;-149.78;100.00;50616.19;5139233;27;20062;-64
2021/12/10 10:57:24;;;;;;;2.38;0.80;;;;;;;-149.78;100.00;50604.44;5130576;27;20026;-64
2021/12/10 10:59:54;;;;;;;3.97;1.50;;;;;;;-149.78;100.00;50588.78;5121711;27;20107;-65
2021/12/10 11:02:20;;;;;;;5.50;0.80;;;;;;;-149.78;100.00;50575.09;5134906;27;20039;-65
2021/12/10 11:04:49;;;;;;;4.75;1.05;;;;;;;-149.78;100.00;50571.19;5134407;27;20023;-64
2021/12/10 11:07:25;;;;;;;4.65;1.13;;;;;;;-149.78;100.00;50596.63;5134753;27;20023;-64
2021/12/10 11:10:02;;;;;;;7.18;1.30;;;;;;;-149.78;100.00;50575.09;5116410;27;20030;-64
2021/12/10 11:12:34;;;;;;;5.88;0.98;;;;;;;-149.78;100.00;50612.25;5134515;27;20032;-64
2021/12/10 11:15:02;;;;;;;6.25;1.50;;;;;;;-149.78;100.00;50612.25;5134413;27;20424;-64
2021/12/10 11:17:34;;;;;;;5.93;1.10;;;;;;;-149.78;100.00;50563.38;5134481;27;20035;-64
2021/12/10 11:20:02;;;;;;;5.20;1.17;;;;;;;-149.78;100.00;50565.31;5138441;27;20369;-64
2021/12/10 11:22:30;;;;;;;8.40;1.23;;;;;;;-149.78;100.00;50600.53;5136682;27;20371;-64